^^
Grace C. Lehan Memorial Weather Station Historical Data
Daily Summary for August 10, 2021 Units:  Metric    English   Both
Daily Weekly Monthly Yearly
  High: Low: Average:
Temperature: 26.8 °C 21.4 °C 24.2 °C
Dew Point: 23.1 °C 20.2 °C 21.8 °C
Humidity: 95% 78.1% 87%
Wind Speed: 0.8km/h 0km/h 0km/h
Wind Gust: 9.7km/h - -
Wind- - South
Pressure: 1020.9 hPa 1016.1 hPa -
Precipitation: 0 mm    
 
 
Tabular Data for August 10, 2021
Time Temperature Dew Point Pressure Wind Wind Speed Wind Gust Humidity Rainfall Rate (Hourly) solar
00:09 21.9 °C 20.4 °C 1020.5 hPa Calm     91% 0 mm 0 W/m2
00:14 21.9 °C 20.3 °C 1020.5 hPa Calm     91% 0 mm 0 W/m2
00:19 21.8 °C 20.3 °C 1020.5 hPa Calm     91% 0 mm 0 W/m2
00:24 21.8 °C 20.3 °C 1020.9 hPa Calm     91.2% 0 mm 0 W/m2
00:29 21.8 °C 20.3 °C 1020.9 hPa Calm     91.4% 0 mm 0 W/m2
00:34 21.8 °C 20.4 °C 1020.9 hPa Calm     92% 0 mm 0 W/m2
00:39 21.7 °C 20.4 °C 1020.9 hPa Calm     92% 0 mm 0 W/m2
00:44 21.7 °C 20.4 °C 1020.9 hPa Calm     92% 0 mm 0 W/m2
00:49 21.7 °C 20.4 °C 1020.9 hPa Calm     92% 0 mm 0 W/m2
00:54 21.7 °C 20.4 °C 1020.9 hPa Calm     92% 0 mm 0 W/m2
00:59 21.8 °C 20.5 °C 1020.9 hPa Calm     92.7% 0 mm 0 W/m2
01:04 21.8 °C 20.6 °C 1020.9 hPa Calm     93% 0 mm 0 W/m2
01:09 21.8 °C 20.6 °C 1020.9 hPa Calm     93% 0 mm 0 W/m2
01:14 21.8 °C 20.7 °C 1020.9 hPa Calm     93% 0 mm 0 W/m2
01:19 21.8 °C 20.7 °C 1020.9 hPa Calm     93% 0 mm 0 W/m2
01:24 21.8 °C 20.7 °C 1020.9 hPa Calm     93% 0 mm 0 W/m2
01:29 21.8 °C 20.7 °C 1020.9 hPa Calm     93% 0 mm 0 W/m2
01:34 21.9 °C 20.7 °C 1020.9 hPa Calm     93% 0 mm 0 W/m2
01:39 21.9 °C 20.7 °C 1020.9 hPa Calm     93% 0 mm 0 W/m2
01:44 21.9 °C 20.7 °C 1020.9 hPa Calm     93% 0 mm 0 W/m2
01:49 21.9 °C 20.7 °C 1020.5 hPa Calm     93% 0 mm 0 W/m2
01:54 21.8 °C 20.7 °C 1020.5 hPa Calm     93% 0 mm 0 W/m2
01:59 21.8 °C 20.7 °C 1020.5 hPa Calm     93% 0 mm 0 W/m2
02:04 21.8 °C 20.7 °C 1020.5 hPa Calm     93% 0 mm 0 W/m2
02:09 21.8 °C 20.7 °C 1020.5 hPa Calm     93% 0 mm 0 W/m2
02:14 21.8 °C 20.7 °C 1020.5 hPa Calm     93% 0 mm 0 W/m2
02:19 21.8 °C 20.7 °C 1020.5 hPa Calm     93% 0 mm 0 W/m2
02:24 21.8 °C 20.7 °C 1020.5 hPa Calm     93% 0 mm 0 W/m2
02:29 21.8 °C 20.7 °C 1020.5 hPa Calm     93% 0 mm 0 W/m2
02:34 21.8 °C 20.7 °C 1020.5 hPa Calm     93% 0 mm 0 W/m2
02:39 21.8 °C 20.7 °C 1020.5 hPa Calm     93% 0 mm 0 W/m2
02:44 21.8 °C 20.7 °C 1020.5 hPa Calm     93% 0 mm 0 W/m2
02:49 21.8 °C 20.6 °C 1020.5 hPa Calm     93% 0 mm 0 W/m2
02:54 21.8 °C 20.6 °C 1020.5 hPa Calm     93% 0 mm 0 W/m2
02:59 21.8 °C 20.6 °C 1020.5 hPa Calm     93% 0 mm 0 W/m2
03:04 21.8 °C 20.6 °C 1020.2 hPa Calm     93% 0 mm 0 W/m2
03:09 21.8 °C 20.6 °C 1020.2 hPa Calm     93% 0 mm 0 W/m2
03:14 21.8 °C 20.6 °C 1020.5 hPa Calm     93% 0 mm 0 W/m2
03:19 21.7 °C 20.6 °C 1020.5 hPa Calm     93% 0 mm 0 W/m2
03:21 21.7 °C 20.6 °C 1020.5 hPa Calm     93% 0 mm 0 W/m2
03:30 21.7 °C 20.5 °C 1020.5 hPa Calm     93% 0 mm 0 W/m2
04:04 21.5 °C 20.3 °C 1020.5 hPa Calm     93% 0 mm 0 W/m2
04:09 21.4 °C 20.3 °C 1020.5 hPa Calm     93% 0 mm 0 W/m2
04:14 21.4 °C 20.3 °C 1020.5 hPa Calm     93% 0 mm 0 W/m2
04:19 21.5 °C 20.3 °C 1020.5 hPa Calm     93% 0 mm 0 W/m2
04:24 21.5 °C 20.3 °C 1020.2 hPa Calm     93% 0 mm 0 W/m2
04:29 21.5 °C 20.3 °C 1020.2 hPa Calm     93% 0 mm 0 W/m2
04:34 21.5 °C 20.3 °C 1020.2 hPa Calm     93% 0 mm 0 W/m2
04:39 21.4 °C 20.3 °C 1020.2 hPa Calm     93% 0 mm 0 W/m2
04:44 21.4 °C 20.3 °C 1020.2 hPa Calm     93% 0 mm 0 W/m2
04:49 21.4 °C 20.3 °C 1020.2 hPa Calm     93% 0 mm 0 W/m2
04:54 21.4 °C 20.3 °C 1020.2 hPa Calm     93% 0 mm 0 W/m2
04:59 21.4 °C 20.2 °C 1020.2 hPa Calm     93% 0 mm 0 W/m2
05:04 21.4 °C 20.2 °C 1020.2 hPa Calm     93% 0 mm 0 W/m2
05:09 21.4 °C 20.2 °C 1020.2 hPa Calm     93% 0 mm 0 W/m2
05:14 21.4 °C 20.2 °C 1020.5 hPa Calm     93% 0 mm 0 W/m2
05:19 21.4 °C 20.2 °C 1020.5 hPa Calm     93% 0 mm 0 W/m2
05:24 21.4 °C 20.2 °C 1020.5 hPa Calm     93% 0 mm 0 W/m2
05:29 21.4 °C 20.2 °C 1020.5 hPa Calm     93% 0 mm 0 W/m2
05:34 21.4 °C 20.2 °C 1020.5 hPa Calm     93% 0 mm 0 W/m2
05:39 21.4 °C 20.2 °C 1020.5 hPa Calm     93% 0 mm 0 W/m2
05:44 21.4 °C 20.4 °C 1020.5 hPa Calm     94% 0 mm 0 W/m2
05:49 21.4 °C 20.4 °C 1020.5 hPa Calm     94% 0 mm 0 W/m2
05:54 21.4 °C 20.4 °C 1020.5 hPa Calm     94% 0 mm 0 W/m2
05:59 21.4 °C 20.4 °C 1020.5 hPa Calm     94% 0 mm 0 W/m2
06:04 21.4 °C 20.4 °C 1020.5 hPa Calm     94% 0 mm 5 W/m2
06:09 21.4 °C 20.4 °C 1020.5 hPa Calm     94% 0 mm 5 W/m2
06:14 21.4 °C 20.4 °C 1020.5 hPa Calm     94% 0 mm 11 W/m2
06:19 21.4 °C 20.4 °C 1020.5 hPa Calm     94% 0 mm 18 W/m2
06:24 21.4 °C 20.4 °C 1020.5 hPa Calm     94% 0 mm 21 W/m2
06:29 21.4 °C 20.4 °C 1020.5 hPa Calm     94% 0 mm 26 W/m2
06:34 21.4 °C 20.4 °C 1020.5 hPa Calm     94% 0 mm 39 W/m2
06:39 21.4 °C 20.4 °C 1020.5 hPa Calm     94% 0 mm 40 W/m2
06:44 21.4 °C 20.4 °C 1020.9 hPa Calm     94% 0 mm 42 W/m2
06:49 21.5 °C 20.5 °C 1020.9 hPa Calm     94% 0 mm 72 W/m2
06:54 21.6 °C 20.6 °C 1020.9 hPa Calm     94% 0 mm 72 W/m2
06:59 21.7 °C 20.7 °C 1020.9 hPa Calm     94.2% 0 mm 120 W/m2
07:04 21.9 °C 21.1 °C 1020.9 hPa Calm     94.9% 0 mm 142 W/m2
07:09 22.1 °C 21.3 °C 1020.9 hPa Calm     95% 0 mm 162 W/m2
07:14 22.3 °C 21.4 °C 1020.9 hPa Calm     94.8% 0 mm 162 W/m2
07:19 22.6 °C 21.6 °C 1020.9 hPa Calm   1.6 km/h 94% 0 mm 149 W/m2
07:24 22.9 °C 21.8 °C 1020.9 hPa Calm   1.6 km/h 93.7% 0 mm 141 W/m2
07:29 23.2 °C 21.9 °C 1020.9 hPa Calm   1.6 km/h 92.5% 0 mm 186 W/m2
07:34 23.3 °C 21.9 °C 1020.9 hPa Calm   1.6 km/h 91.7% 0 mm 132 W/m2
07:39 23.4 °C 21.8 °C 1020.9 hPa Calm     90.6% 0 mm 93 W/m2
07:44 23.5 °C 21.7 °C 1020.9 hPa Calm     89.8% 0 mm 79 W/m2
07:49 23.5 °C 21.6 °C 1020.9 hPa Calm     89% 0 mm 60 W/m2
07:54 23.4 °C 21.4 °C 1020.9 hPa Calm     88.6% 0 mm 84 W/m2
07:59 23.3 °C 21.4 °C 1020.5 hPa Calm     89% 0 mm 95 W/m2
08:04 23.4 °C 21.6 °C 1020.5 hPa Calm     89% 0 mm 77 W/m2
08:09 23.4 °C 21.5 °C 1020.5 hPa Calm     89% 0 mm 93 W/m2
08:14 23.5 °C 21.6 °C 1020.5 hPa Calm     89% 0 mm 93 W/m2
08:19 23.5 °C 21.6 °C 1020.5 hPa Calm     89% 0 mm 128 W/m2
08:24 23.6 °C 21.7 °C 1020.5 hPa Calm     89% 0 mm 137 W/m2
08:29 23.7 °C 21.7 °C 1020.5 hPa Calm     88.8% 0 mm 137 W/m2
08:34 23.7 °C 21.6 °C 1020.9 hPa Calm     88% 0 mm 181 W/m2
08:39 23.7 °C 21.6 °C 1020.5 hPa Calm     88% 0 mm 190 W/m2
08:44 23.7 °C 21.6 °C 1020.5 hPa Calm     88% 0 mm 121 W/m2
08:49 23.8 °C 21.7 °C 1020.5 hPa Calm     88% 0 mm 113 W/m2
08:54 23.8 °C 21.5 °C 1020.9 hPa Calm     87.2% 0 mm 125 W/m2
08:59 23.7 °C 21.4 °C 1020.5 hPa Calm     87% 0 mm 165 W/m2
09:04 23.7 °C 21.5 °C 1020.5 hPa Calm     87.3% 0 mm 160 W/m2
09:09 23.7 °C 21.3 °C 1020.5 hPa Calm     86.5% 0 mm 162 W/m2
09:14 23.8 °C 21.5 °C 1020.5 hPa Calm     87% 0 mm 295 W/m2
09:19 23.9 °C 21.6 °C 1020.5 hPa Calm     87% 0 mm 295 W/m2
09:24 24.2 °C 21.9 °C 1020.5 hPa Calm   3.2 km/h 87.4% 0 mm 243 W/m2
09:29 24.3 °C 21.7 °C 1020.5 hPa Calm   3.2 km/h 85.3% 0 mm 475 W/m2
09:34 24.5 °C 21.6 °C 1020.5 hPa Calm   3.2 km/h 83.9% 0 mm 320 W/m2
09:39 24.6 °C 21.5 °C 1020.5 hPa Calm     83% 0 mm 174 W/m2
09:44 24.7 °C 21.6 °C 1020.5 hPa Calm     83% 0 mm 109 W/m2
09:49 24.7 °C 21.6 °C 1020.9 hPa Calm     83% 0 mm 142 W/m2
09:54 24.6 °C 21.6 °C 1020.5 hPa Calm   1.6 km/h 83% 0 mm 149 W/m2
09:59 24.6 °C 21.3 °C 1020.5 hPa Calm   1.6 km/h 82.1% 0 mm 251 W/m2
10:04 24.5 °C 21.4 °C 1020.5 hPa Calm   1.6 km/h 83% 0 mm 364 W/m2
10:09 24.6 °C 21.6 °C 1020.5 hPa Calm   3.2 km/h 83.3% 0 mm 306 W/m2
10:14 24.8 °C 21.5 °C 1020.5 hPa Calm   3.2 km/h 82.2% 0 mm 311 W/m2
10:19 24.9 °C 21.4 °C 1020.5 hPa Calm   3.2 km/h 81% 0 mm 283 W/m2
10:24 25 °C 21.5 °C 1020.5 hPa Calm   3.2 km/h 81% 0 mm 308 W/m2
10:29 25.1 °C 21.5 °C 1020.5 hPa Calm   3.2 km/h 80.6% 0 mm 287 W/m2
10:34 25.2 °C 21.6 °C 1020.5 hPa Calm   3.2 km/h 80.3% 0 mm 264 W/m2
10:39 25.3 °C 21.6 °C 1020.2 hPa Calm   1.6 km/h 80% 0 mm 299 W/m2
10:44 25.4 °C 21.8 °C 1020.2 hPa Calm   1.6 km/h 80.5% 0 mm 267 W/m2
10:49 25.5 °C 21.8 °C 1020.2 hPa Calm   1.6 km/h 79.9% 0 mm 292 W/m2
10:54 25.6 °C 21.9 °C 1020.2 hPa Calm   1.6 km/h 80% 0 mm 257 W/m2
10:59 25.7 °C 21.8 °C 1020.2 hPa Calm   1.6 km/h 79.1% 0 mm 257 W/m2
11:04 25.7 °C 21.6 °C 1020.2 hPa Calm   1.6 km/h 78.3% 0 mm 204 W/m2
11:09 25.7 °C 21.8 °C 1020.2 hPa Calm     79% 0 mm 218 W/m2
11:14 25.7 °C 21.8 °C 1020.2 hPa Calm     79.2% 0 mm 144 W/m2
11:19 25.7 °C 21.9 °C 1020.2 hPa Calm     79.7% 0 mm 141 W/m2
11:24 25.7 °C 21.9 °C 1019.9 hPa Calm     79.7% 0 mm 195 W/m2
11:29 25.7 °C 22.1 °C 1019.9 hPa Calm     80.3% 0 mm 195 W/m2
11:34 25.6 °C 21.8 °C 1019.9 hPa Calm     79.2% 0 mm 193 W/m2
11:39 25.6 °C 21.9 °C 1019.9 hPa Calm     79.9% 0 mm 229 W/m2
11:44 25.6 °C 21.9 °C 1019.9 hPa Calm   1.6 km/h 79.9% 0 mm 158 W/m2
11:49 25.6 °C 21.9 °C 1019.9 hPa Calm   1.6 km/h 79.9% 0 mm 188 W/m2
11:54 25.7 °C 21.9 °C 1019.9 hPa Calm   1.6 km/h 80% 0 mm 172 W/m2
11:59 25.7 °C 22 °C 1019.9 hPa East 0.2 km/h 1.6 km/h 80.2% 0 mm 202 W/m2
12:00 25.7 °C 21.9 °C 1019.9 hPa Calm   1.6 km/h 80% 0 mm 202 W/m2
12:09 25.6 °C 22 °C 1019.9 hPa Calm     80.3% 0 mm 276 W/m2
12:14 25.7 °C 22.1 °C 1019.9 hPa Calm   1.6 km/h 80.7% 0 mm 264 W/m2
12:19 25.7 °C 22.1 °C 1019.9 hPa Calm   1.6 km/h 80.2% 0 mm 260 W/m2
12:24 25.8 °C 22.1 °C 1019.9 hPa Calm   1.6 km/h 80.1% 0 mm 174 W/m2
12:29 25.8 °C 22.1 °C 1019.9 hPa Calm   1.6 km/h 80% 0 mm 156 W/m2
12:34 25.8 °C 22.2 °C 1019.5 hPa Calm   1.6 km/h 80.5% 0 mm 134 W/m2
12:39 25.8 °C 22.3 °C 1019.5 hPa Calm   1.6 km/h 81% 0 mm 155 W/m2
12:44 25.8 °C 22.2 °C 1019.5 hPa East 0.2 km/h 4.8 km/h 80.5% 0 mm 155 W/m2
12:49 25.8 °C 22.2 °C 1019.5 hPa Calm   4.8 km/h 80.4% 0 mm 209 W/m2
12:54 25.8 °C 22.2 °C 1019.2 hPa Calm   4.8 km/h 80% 0 mm 274 W/m2
12:59 25.9 °C 22.2 °C 1019.2 hPa Calm   4.8 km/h 80% 0 mm 197 W/m2
13:04 25.9 °C 22.2 °C 1019.2 hPa East 0.2 km/h 4.8 km/h 80% 0 mm 153 W/m2
13:09 25.9 °C 22.2 °C 1019.2 hPa Calm   3.2 km/h 80% 0 mm 158 W/m2
13:14 25.9 °C 22.3 °C 1019.2 hPa Calm   3.2 km/h 80.5% 0 mm 162 W/m2
13:19 25.9 °C 22.2 °C 1019.2 hPa Calm   3.2 km/h 80% 0 mm 144 W/m2
13:24 25.8 °C 22.1 °C 1019.2 hPa Calm   3.2 km/h 80% 0 mm 142 W/m2
13:29 25.8 °C 22.2 °C 1019.2 hPa East 0.2 km/h 4.8 km/h 80.5% 0 mm 204 W/m2
13:34 25.8 °C 22.3 °C 1019.2 hPa Calm   4.8 km/h 81% 0 mm 279 W/m2
13:39 25.8 °C 22.4 °C 1019.2 hPa Calm   1.6 km/h 81.7% 0 mm 279 W/m2
13:44 25.9 °C 22.2 °C 1019.2 hPa Calm   1.6 km/h 80.2% 0 mm 279 W/m2
13:49 26.1 °C 22.3 °C 1019.2 hPa East 0.3 km/h 6.4 km/h 80% 0 mm 176 W/m2
13:54 26.1 °C 22.4 °C 1019.2 hPa Calm   6.4 km/h 80% 0 mm 209 W/m2
13:59 26.1 °C 22.2 °C 1018.8 hPa ESE 0.3 km/h 6.4 km/h 79.3% 0 mm 253 W/m2
14:04 26.2 °C 22.7 °C 1018.8 hPa WNW 0.2 km/h 6.4 km/h 81% 0 mm 213 W/m2
14:09 26.3 °C 22.5 °C 1018.8 hPa SW 0.3 km/h 3.2 km/h 79.6% 0 mm 227 W/m2
14:14 26.3 °C 22.3 °C 1018.8 hPa Calm   3.2 km/h 78.8% 0 mm 227 W/m2
14:19 26.3 °C 22.3 °C 1018.8 hPa Calm   3.2 km/h 78.5% 0 mm 167 W/m2
14:24 26.4 °C 22.5 °C 1018.5 hPa SW 0.2 km/h 6.4 km/h 79.2% 0 mm 158 W/m2
14:29 26.4 °C 22.4 °C 1018.5 hPa Calm   6.4 km/h 79% 0 mm 93 W/m2
14:34 26.3 °C 22.2 °C 1018.5 hPa Calm   6.4 km/h 78.1% 0 mm 93 W/m2
14:39 26.2 °C 22.2 °C 1018.5 hPa SW 0.2 km/h 3.2 km/h 78.9% 0 mm 105 W/m2
14:44 26.1 °C 22.2 °C 1018.5 hPa SSW 0.5 km/h 4.8 km/h 79% 0 mm 74 W/m2
14:49 25.9 °C 22.1 °C 1018.5 hPa WSW 0.2 km/h 8 km/h 79.5% 0 mm 153 W/m2
14:54 25.9 °C 22.3 °C 1018.5 hPa WSW 0.2 km/h 8 km/h 80.6% 0 mm 279 W/m2
14:59 25.9 °C 22.4 °C 1018.5 hPa Calm   8 km/h 81.2% 0 mm 279 W/m2
15:04 26.1 °C 22.6 °C 1018.2 hPa Calm   8 km/h 81% 0 mm 183 W/m2
15:09 26.1 °C 22.4 °C 1018.2 hPa Calm     80.2% 0 mm 179 W/m2
15:14 26.2 °C 22.4 °C 1018.2 hPa Calm     80% 0 mm 229 W/m2
15:19 26.3 °C 22.7 °C 1018.2 hPa Calm     80.9% 0 mm 248 W/m2
15:24 26.4 °C 22.8 °C 1017.8 hPa SW 0.2 km/h 4.8 km/h 80.7% 0 mm 264 W/m2
15:29 26.6 °C 22.8 °C 1017.8 hPa Calm   4.8 km/h 79.5% 0 mm 264 W/m2
15:34 26.7 °C 22.8 °C 1017.8 hPa Calm   4.8 km/h 79% 0 mm 148 W/m2
15:39 26.8 °C 22.8 °C 1017.8 hPa Calm     79% 0 mm 114 W/m2
15:44 26.8 °C 22.8 °C 1017.8 hPa Calm     78.8% 0 mm 162 W/m2
15:49 26.7 °C 22.7 °C 1017.5 hPa Calm   3.2 km/h 78.4% 0 mm 236 W/m2
15:54 26.7 °C 22.7 °C 1017.5 hPa Calm   3.2 km/h 79% 0 mm 239 W/m2
15:59 26.7 °C 22.8 °C 1017.5 hPa Calm   3.2 km/h 79.4% 0 mm 185 W/m2
16:00 26.6 °C 22.9 °C 1017.5 hPa Calm   3.2 km/h 80% 0 mm 130 W/m2
16:09 26.7 °C 22.8 °C 1017.5 hPa Calm     79.5% 0 mm 100 W/m2
16:14 26.6 °C 22.7 °C 1017.5 hPa Calm   1.6 km/h 79.1% 0 mm 79 W/m2
16:19 26.5 °C 22.8 °C 1017.5 hPa SW 0.2 km/h 3.2 km/h 80% 0 mm 67 W/m2
16:24 26.4 °C 22.7 °C 1017.5 hPa Calm   3.2 km/h 80% 0 mm 93 W/m2
16:29 26.4 °C 22.8 °C 1017.5 hPa Calm   3.2 km/h 80.9% 0 mm 93 W/m2
16:34 26.3 °C 22.8 °C 1017.5 hPa Calm   3.2 km/h 81% 0 mm 42 W/m2
16:39 26.3 °C 22.9 °C 1017.5 hPa Calm     81.7% 0 mm 33 W/m2
16:44 26.2 °C 22.7 °C 1017.8 hPa SW 0.5 km/h 6.4 km/h 81% 0 mm 32 W/m2
16:49 26.1 °C 22.6 °C 1017.5 hPa Calm   6.4 km/h 81% 0 mm 62 W/m2
16:54 26 °C 22.6 °C 1017.5 hPa Calm   6.4 km/h 81.6% 0 mm 72 W/m2
16:59 25.9 °C 22.6 °C 1017.5 hPa Calm   6.4 km/h 82% 0 mm 77 W/m2
17:04 25.9 °C 22.7 °C 1017.5 hPa SW 0.8 km/h 9.7 km/h 82.7% 0 mm 65 W/m2
17:09 25.8 °C 22.7 °C 1017.5 hPa Calm   9.7 km/h 82.8% 0 mm 54 W/m2
17:14 25.8 °C 22.7 °C 1017.5 hPa Calm   9.7 km/h 83% 0 mm 54 W/m2
17:19 25.8 °C 22.7 °C 1017.2 hPa Calm   9.7 km/h 83% 0 mm 44 W/m2
17:24 25.8 °C 22.8 °C 1017.2 hPa Calm   9.7 km/h 83.6% 0 mm 42 W/m2
17:29 25.7 °C 22.8 °C 1017.2 hPa Calm   9.7 km/h 84% 0 mm 77 W/m2
17:34 25.7 °C 22.8 °C 1017.2 hPa Calm   9.7 km/h 84% 0 mm 107 W/m2
17:39 25.7 °C 22.8 °C 1017.2 hPa South 0.2 km/h 1.6 km/h 84% 0 mm 114 W/m2
17:44 25.8 °C 22.9 °C 1017.2 hPa SSE 0.2 km/h 3.2 km/h 84% 0 mm 109 W/m2
17:49 25.8 °C 22.8 °C 1017.2 hPa ESE 0.6 km/h 8 km/h 83.7% 0 mm 109 W/m2
17:54 25.8 °C 22.8 °C 1016.8 hPa Calm   8 km/h 83.3% 0 mm 84 W/m2
17:59 25.9 °C 22.9 °C 1016.8 hPa Calm   8 km/h 83.8% 0 mm 67 W/m2
18:04 25.9 °C 22.8 °C 1017.2 hPa Calm   8 km/h 83.2% 0 mm 65 W/m2
18:09 25.9 °C 22.8 °C 1017.2 hPa Calm   1.6 km/h 83.2% 0 mm 46 W/m2
18:14 25.9 °C 22.8 °C 1017.2 hPa ESE 0.2 km/h 3.2 km/h 83.1% 0 mm 33 W/m2
18:19 25.8 °C 22.9 °C 1017.2 hPa Calm   3.2 km/h 83.8% 0 mm 33 W/m2
18:24 25.8 °C 22.9 °C 1017.2 hPa Calm   3.2 km/h 84% 0 mm 54 W/m2
18:29 25.8 °C 22.9 °C 1016.8 hPa Calm   3.2 km/h 84% 0 mm 49 W/m2
18:34 25.8 °C 22.7 °C 1016.8 hPa Calm   3.2 km/h 83.2% 0 mm 26 W/m2
18:39 25.7 °C 22.6 °C 1016.8 hPa Calm   3.2 km/h 83% 0 mm 21 W/m2
18:44 25.7 °C 22.8 °C 1016.8 hPa Calm   3.2 km/h 84% 0 mm 19 W/m2
18:49 25.7 °C 22.8 °C 1016.8 hPa Calm   3.2 km/h 84% 0 mm 12 W/m2
18:54 25.6 °C 22.6 °C 1016.8 hPa Calm   3.2 km/h 83.5% 0 mm 18 W/m2
18:59 25.6 °C 22.7 °C 1016.8 hPa Calm   3.2 km/h 84% 0 mm 23 W/m2
19:04 25.5 °C 22.6 °C 1016.5 hPa Calm   3.2 km/h 83.8% 0 mm 23 W/m2
19:09 25.4 °C 22.6 °C 1016.5 hPa Calm     84% 0 mm 16 W/m2
19:14 25.4 °C 22.6 °C 1016.5 hPa Calm   1.6 km/h 84% 0 mm 12 W/m2
19:19 25.4 °C 22.6 °C 1016.5 hPa Calm   1.6 km/h 84% 0 mm 12 W/m2
19:24 25.4 °C 22.5 °C 1016.5 hPa ESE 0.2 km/h 3.2 km/h 84% 0 mm 18 W/m2
19:29 25.3 °C 22.4 °C 1016.5 hPa SE 0.2 km/h 3.2 km/h 84% 0 mm 16 W/m2
19:34 25.3 °C 22.4 °C 1016.5 hPa Calm   3.2 km/h 84% 0 mm 7 W/m2
19:39 25.2 °C 22.4 °C 1016.5 hPa WSW 0.2 km/h 4.8 km/h 84.2% 0 mm 0 W/m2
19:44 25.2 °C 22.5 °C 1016.5 hPa Calm   4.8 km/h 85% 0 mm 0 W/m2
19:49 25.2 °C 22.4 °C 1016.5 hPa Calm   4.8 km/h 85% 0 mm 0 W/m2
19:54 25.1 °C 22.4 °C 1016.5 hPa Calm   4.8 km/h 85% 0 mm 0 W/m2
19:59 25.1 °C 22.4 °C 1016.5 hPa Calm   4.8 km/h 85.4% 0 mm 0 W/m2
20:04 25 °C 22.5 °C 1016.5 hPa Calm     86% 0 mm 0 W/m2
20:09 25 °C 22.5 °C 1016.5 hPa Calm     86% 0 mm 0 W/m2
20:14 24.9 °C 22.4 °C 1016.5 hPa Calm     86% 0 mm 0 W/m2
20:19 24.9 °C 22.5 °C 1016.5 hPa Calm     86.4% 0 mm 0 W/m2
20:24 24.9 °C 22.6 °C 1016.5 hPa SSE 0.3 km/h 6.4 km/h 87% 0 mm 0 W/m2
20:29 24.8 °C 22.5 °C 1016.5 hPa Calm   6.4 km/h 87% 0 mm 0 W/m2
20:34 24.8 °C 22.5 °C 1016.5 hPa Calm   6.4 km/h 87% 0 mm 0 W/m2
20:39 24.8 °C 22.6 °C 1016.5 hPa Calm     87.6% 0 mm 0 W/m2
20:44 24.8 °C 22.7 °C 1016.8 hPa SSW 0.2 km/h 4.8 km/h 88% 0 mm 0 W/m2
20:49 24.8 °C 22.7 °C 1016.8 hPa Calm   4.8 km/h 88% 0 mm 0 W/m2
20:54 24.8 °C 22.7 °C 1016.8 hPa Calm   4.8 km/h 88% 0 mm 0 W/m2
20:59 24.8 °C 22.7 °C 1016.8 hPa Calm   4.8 km/h 88.2% 0 mm 0 W/m2
21:04 24.8 °C 22.8 °C 1016.8 hPa Calm   4.8 km/h 89% 0 mm 0 W/m2
21:09 24.7 °C 22.8 °C 1016.8 hPa Calm     89% 0 mm 0 W/m2
21:14 24.7 °C 22.8 °C 1016.8 hPa Calm     89% 0 mm 0 W/m2
21:19 24.7 °C 22.8 °C 1016.8 hPa Calm     89% 0 mm 0 W/m2
21:24 24.7 °C 22.8 °C 1016.8 hPa Calm     89% 0 mm 0 W/m2
21:29 24.7 °C 22.8 °C 1017.2 hPa SSW 0.2 km/h 4.8 km/h 89% 0 mm 0 W/m2
21:34 24.7 °C 22.8 °C 1017.2 hPa SSW 0.3 km/h 4.8 km/h 89% 0 mm 0 W/m2
21:39 24.7 °C 22.9 °C 1017.2 hPa Calm   3.2 km/h 90% 0 mm 0 W/m2
21:44 24.7 °C 22.9 °C 1017.2 hPa Calm   3.2 km/h 90% 0 mm 0 W/m2
21:49 24.7 °C 22.9 °C 1017.2 hPa Calm   3.2 km/h 90% 0 mm 0 W/m2
21:54 24.7 °C 22.9 °C 1017.2 hPa Calm   3.2 km/h 90% 0 mm 0 W/m2
21:59 24.7 °C 22.9 °C 1016.8 hPa Calm   3.2 km/h 90% 0 mm 0 W/m2
22:04 24.7 °C 22.9 °C 1016.8 hPa Calm   3.2 km/h 90% 0 mm 0 W/m2
22:09 24.7 °C 22.9 °C 1016.8 hPa Calm     90% 0 mm 0 W/m2
22:14 24.6 °C 23 °C 1016.8 hPa Calm     90.7% 0 mm 0 W/m2
22:19 24.6 °C 23.1 °C 1016.8 hPa Calm     91% 0 mm 0 W/m2
22:24 24.6 °C 23.1 °C 1016.8 hPa Calm     91% 0 mm 0 W/m2
22:29 24.6 °C 23 °C 1016.5 hPa Calm     91% 0 mm 0 W/m2
22:34 24.6 °C 23 °C 1016.5 hPa Calm     91% 0 mm 0 W/m2
22:39 24.6 °C 23 °C 1016.5 hPa Calm     91% 0 mm 0 W/m2
22:44 24.6 °C 23 °C 1016.5 hPa Calm     91% 0 mm 0 W/m2
22:49 24.6 °C 23 °C 1016.5 hPa Calm     91% 0 mm 0 W/m2
22:54 24.6 °C 23 °C 1016.5 hPa Calm     91% 0 mm 0 W/m2
22:59 24.6 °C 23 °C 1016.5 hPa Calm     91% 0 mm 0 W/m2
23:04 24.6 °C 23 °C 1016.1 hPa Calm     91% 0 mm 0 W/m2
23:09 24.6 °C 23 °C 1016.1 hPa Calm   1.6 km/h 91% 0 mm 0 W/m2
23:14 24.6 °C 23 °C 1016.1 hPa Calm   1.6 km/h 91% 0 mm 0 W/m2
23:19 24.6 °C 23 °C 1016.1 hPa Calm   1.6 km/h 91% 0 mm 0 W/m2
23:24 24.6 °C 22.9 °C 1016.1 hPa Calm   1.6 km/h 91% 0 mm 0 W/m2
23:29 24.6 °C 23 °C 1016.1 hPa Calm   1.6 km/h 91% 0 mm 0 W/m2
23:34 24.6 °C 23 °C 1016.1 hPa Calm   1.6 km/h 91% 0 mm 0 W/m2
23:39 24.5 °C 22.9 °C 1016.1 hPa Calm     91% 0 mm 0 W/m2
23:44 24.5 °C 22.9 °C 1016.1 hPa Calm     91% 0 mm 0 W/m2
23:49 24.4 °C 22.9 °C 1016.1 hPa Calm     91% 0 mm 0 W/m2
23:54 24.4 °C 22.9 °C 1016.1 hPa Calm     91% 0 mm 0 W/m2
23:59 24.4 °C 22.8 °C 1016.1 hPa Calm     91% 0 mm 0 W/m2
Hartford County Weather
Compliments of Weather Underground - 4 mb